sensor_id;sensor_type;location;lat;lon;timestamp;temperature;humidity
1329;DHT22;658;48.820;9.354;2023-05-25T00:03:59;23.30;42.90
1329;DHT22;658;48.820;9.354;2023-05-25T00:08:02;23.30;43.00
1329;DHT22;658;48.820;9.354;2023-05-25T00:12:02;23.30;43.10
1329;DHT22;658;48.820;9.354;2023-05-25T00:16:03;23.30;43.00
1329;DHT22;658;48.820;9.354;2023-05-25T00:20:04;23.20;42.90
1329;DHT22;658;48.820;9.354;2023-05-25T00:24:07;23.20;42.60
1329;DHT22;658;48.820;9.354;2023-05-25T00:28:07;23.20;42.50
1329;DHT22;658;48.820;9.354;2023-05-25T00:32:08;23.10;42.40
1329;DHT22;658;48.820;9.354;2023-05-25T00:36:08;23.10;42.10
1329;DHT22;658;48.820;9.354;2023-05-25T00:40:13;23.10;41.80
1329;DHT22;658;48.820;9.354;2023-05-25T00:44:15;23.10;41.60
1329;DHT22;658;48.820;9.354;2023-05-25T00:48:17;23.00;41.60
1329;DHT22;658;48.820;9.354;2023-05-25T00:52:17;23.00;41.70
1329;DHT22;658;48.820;9.354;2023-05-25T00:56:27;23.00;41.90
1329;DHT22;658;48.820;9.354;2023-05-25T01:00:29;23.00;42.00
1329;DHT22;658;48.820;9.354;2023-05-25T01:04:33;23.00;41.90
1329;DHT22;658;48.820;9.354;2023-05-25T01:08:38;23.00;41.90
1329;DHT22;658;48.820;9.354;2023-05-25T01:12:40;23.00;41.70
1329;DHT22;658;48.820;9.354;2023-05-25T01:16:41;23.00;41.50
1329;DHT22;658;48.820;9.354;2023-05-25T01:24:55;22.90;41.70
1329;DHT22;658;48.820;9.354;2023-05-25T01:28:57;22.90;41.40
1329;DHT22;658;48.820;9.354;2023-05-25T01:32:59;22.90;41.70
1329;DHT22;658;48.820;9.354;2023-05-25T01:37:02;22.90;41.60
1329;DHT22;658;48.820;9.354;2023-05-25T01:41:03;22.80;41.30
1329;DHT22;658;48.820;9.354;2023-05-25T01:45:04;22.80;41.50
1329;DHT22;658;48.820;9.354;2023-05-25T01:53:30;22.80;41.40
1329;DHT22;658;48.820;9.354;2023-05-25T01:57:35;22.80;41.60
1329;DHT22;658;48.820;9.354;2023-05-25T02:01:37;22.80;41.70
1329;DHT22;658;48.820;9.354;2023-05-25T02:05:40;22.80;41.40
1329;DHT22;658;48.820;9.354;2023-05-25T02:09:41;22.70;41.40
1329;DHT22;658;48.820;9.354;2023-05-25T02:13:41;22.70;41.50
1329;DHT22;658;48.820;9.354;2023-05-25T02:17:42;22.70;41.50
1329;DHT22;658;48.820;9.354;2023-05-25T02:21:43;22.70;41.60
1329;DHT22;658;48.820;9.354;2023-05-25T02:25:44;22.60;41.50
1329;DHT22;658;48.820;9.354;2023-05-25T02:29:45;22.70;41.70
1329;DHT22;658;48.820;9.354;2023-05-25T02:33:46;22.60;41.60
1329;DHT22;658;48.820;9.354;2023-05-25T02:37:46;22.60;41.50
1329;DHT22;658;48.820;9.354;2023-05-25T02:41:47;22.60;41.60
1329;DHT22;658;48.820;9.354;2023-05-25T02:45:48;22.60;41.60
1329;DHT22;658;48.820;9.354;2023-05-25T02:49:50;22.60;41.60
1329;DHT22;658;48.820;9.354;2023-05-25T02:53:51;22.60;41.30
1329;DHT22;658;48.820;9.354;2023-05-25T02:57:52;22.50;41.20
1329;DHT22;658;48.820;9.354;2023-05-25T03:01:55;22.50;41.40
1329;DHT22;658;48.820;9.354;2023-05-25T03:05:56;22.50;41.40
1329;DHT22;658;48.820;9.354;2023-05-25T03:09:57;22.50;41.70
1329;DHT22;658;48.820;9.354;2023-05-25T03:13:58;22.50;41.70
1329;DHT22;658;48.820;9.354;2023-05-25T03:17:59;22.40;41.60
1329;DHT22;658;48.820;9.354;2023-05-25T03:22:02;22.40;41.60
1329;DHT22;658;48.820;9.354;2023-05-25T03:26:03;22.40;41.60
1329;DHT22;658;48.820;9.354;2023-05-25T03:30:04;22.40;41.70
1329;DHT22;658;48.820;9.354;2023-05-25T03:34:05;22.40;41.70
1329;DHT22;658;48.820;9.354;2023-05-25T03:38:06;22.40;41.80
1329;DHT22;658;48.820;9.354;2023-05-25T03:42:07;22.40;41.70
1329;DHT22;658;48.820;9.354;2023-05-25T03:46:07;22.30;41.70
1329;DHT22;658;48.820;9.354;2023-05-25T03:50:13;22.30;41.70
1329;DHT22;658;48.820;9.354;2023-05-25T03:54:13;22.30;41.80
1329;DHT22;658;48.820;9.354;2023-05-25T03:58:14;22.30;41.90
1329;DHT22;658;48.820;9.354;2023-05-25T04:02:20;22.30;41.70
1329;DHT22;658;48.820;9.354;2023-05-25T04:06:20;22.30;41.70
1329;DHT22;658;48.820;9.354;2023-05-25T04:10:24;22.30;42.40
1329;DHT22;658;48.820;9.354;2023-05-25T04:14:25;22.30;41.80
1329;DHT22;658;48.820;9.354;2023-05-25T04:18:26;22.20;41.60
1329;DHT22;658;48.820;9.354;2023-05-25T04:22:28;22.30;41.90
1329;DHT22;658;48.820;9.354;2023-05-25T04:26:30;22.20;41.90
1329;DHT22;658;48.820;9.354;2023-05-25T04:30:33;22.20;41.80
1329;DHT22;658;48.820;9.354;2023-05-25T04:34:37;22.20;42.00
1329;DHT22;658;48.820;9.354;2023-05-25T04:38:38;22.20;42.30
1329;DHT22;658;48.820;9.354;2023-05-25T04:42:39;22.20;42.60
1329;DHT22;658;48.820;9.354;2023-05-25T04:46:40;22.20;42.90
1329;DHT22;658;48.820;9.354;2023-05-25T04:50:41;22.20;42.90
1329;DHT22;658;48.820;9.354;2023-05-25T04:54:42;22.20;43.90
1329;DHT22;658;48.820;9.354;2023-05-25T04:58:43;22.30;43.70
1329;DHT22;658;48.820;9.354;2023-05-25T05:02:43;22.40;43.60
1329;DHT22;658;48.820;9.354;2023-05-25T05:06:46;22.40;43.30
1329;DHT22;658;48.820;9.354;2023-05-25T05:10:47;22.30;42.90
1329;DHT22;658;48.820;9.354;2023-05-25T05:14:47;22.20;43.80
1329;DHT22;658;48.820;9.354;2023-05-25T05:18:48;22.30;43.90
1329;DHT22;658;48.820;9.354;2023-05-25T05:22:48;22.30;43.70
1329;DHT22;658;48.820;9.354;2023-05-25T05:26:52;22.20;43.80
1329;DHT22;658;48.820;9.354;2023-05-25T05:30:53;22.30;43.80
1329;DHT22;658;48.820;9.354;2023-05-25T05:34:56;22.30;43.80
1329;DHT22;658;48.820;9.354;2023-05-25T05:38:56;22.30;43.80
1329;DHT22;658;48.820;9.354;2023-05-25T05:42:57;22.30;43.80
1329;DHT22;658;48.820;9.354;2023-05-25T05:46:57;22.30;43.90
1329;DHT22;658;48.820;9.354;2023-05-25T05:51:04;22.30;43.50
1329;DHT22;658;48.820;9.354;2023-05-25T05:55:05;22.40;43.70
1329;DHT22;658;48.820;9.354;2023-05-25T05:59:10;22.40;44.20
1329;DHT22;658;48.820;9.354;2023-05-25T06:03:10;22.50;43.50
1329;DHT22;658;48.820;9.354;2023-05-25T06:07:11;22.50;43.40
1329;DHT22;658;48.820;9.354;2023-05-25T06:11:14;22.50;43.30
1329;DHT22;658;48.820;9.354;2023-05-25T06:15:15;22.70;43.40
1329;DHT22;658;48.820;9.354;2023-05-25T06:19:16;22.70;43.50
1329;DHT22;658;48.820;9.354;2023-05-25T06:23:17;22.70;43.30
1329;DHT22;658;48.820;9.354;2023-05-25T06:27:18;22.80;43.30
1329;DHT22;658;48.820;9.354;2023-05-25T06:31:19;22.80;43.30
1329;DHT22;658;48.820;9.354;2023-05-25T06:35:20;22.90;43.30
1329;DHT22;658;48.820;9.354;2023-05-25T06:39:23;22.90;43.40
1329;DHT22;658;48.820;9.354;2023-05-25T06:43:26;22.90;43.30
1329;DHT22;658;48.820;9.354;2023-05-25T06:47:26;22.90;43.20
1329;DHT22;658;48.820;9.354;2023-05-25T06:51:27;23.00;43.20
1329;DHT22;658;48.820;9.354;2023-05-25T06:55:27;23.00;43.10
1329;DHT22;658;48.820;9.354;2023-05-25T06:59:30;23.00;43.20
1329;DHT22;658;48.820;9.354;2023-05-25T07:03:31;23.00;43.40
1329;DHT22;658;48.820;9.354;2023-05-25T07:07:32;23.10;43.30
1329;DHT22;658;48.820;9.354;2023-05-25T07:11:35;23.10;43.40
1329;DHT22;658;48.820;9.354;2023-05-25T07:15:35;23.00;43.30
1329;DHT22;658;48.820;9.354;2023-05-25T07:19:36;23.10;43.30
1329;DHT22;658;48.820;9.354;2023-05-25T07:23:37;23.10;43.20
1329;DHT22;658;48.820;9.354;2023-05-25T07:27:47;23.20;43.20
1329;DHT22;658;48.820;9.354;2023-05-25T07:31:47;23.20;43.30
1329;DHT22;658;48.820;9.354;2023-05-25T07:35:48;23.30;43.40
1329;DHT22;658;48.820;9.354;2023-05-25T07:39:50;23.30;43.40
1329;DHT22;658;48.820;9.354;2023-05-25T07:43:51;23.40;43.40
1329;DHT22;658;48.820;9.354;2023-05-25T07:47:53;23.40;43.40
1329;DHT22;658;48.820;9.354;2023-05-25T07:51:54;23.40;43.30
1329;DHT22;658;48.820;9.354;2023-05-25T07:55:55;23.50;43.40
1329;DHT22;658;48.820;9.354;2023-05-25T07:59:55;23.50;43.60
1329;DHT22;658;48.820;9.354;2023-05-25T08:03:56;23.60;44.10
1329;DHT22;658;48.820;9.354;2023-05-25T08:07:57;23.60;43.40
1329;DHT22;658;48.820;9.354;2023-05-25T08:11:57;23.60;43.50
1329;DHT22;658;48.820;9.354;2023-05-25T08:15:59;23.70;43.50
1329;DHT22;658;48.820;9.354;2023-05-25T08:19:59;23.70;43.50
1329;DHT22;658;48.820;9.354;2023-05-25T08:24:00;23.80;43.50
1329;DHT22;658;48.820;9.354;2023-05-25T08:28:05;23.90;43.40
1329;DHT22;658;48.820;9.354;2023-05-25T08:32:06;23.90;43.40
1329;DHT22;658;48.820;9.354;2023-05-25T08:36:07;24.00;43.40
1329;DHT22;658;48.820;9.354;2023-05-25T08:40:15;24.00;43.30
1329;DHT22;658;48.820;9.354;2023-05-25T08:44:16;24.10;43.30
1329;DHT22;658;48.820;9.354;2023-05-25T08:48:19;24.10;43.20
1329;DHT22;658;48.820;9.354;2023-05-25T08:52:22;24.10;43.20
1329;DHT22;658;48.820;9.354;2023-05-25T08:56:26;24.10;43.40
1329;DHT22;658;48.820;9.354;2023-05-25T09:00:33;24.20;43.20
1329;DHT22;658;48.820;9.354;2023-05-25T09:04:35;24.20;43.10
1329;DHT22;658;48.820;9.354;2023-05-25T09:08:38;24.30;43.00
1329;DHT22;658;48.820;9.354;2023-05-25T09:12:42;24.30;43.00
1329;DHT22;658;48.820;9.354;2023-05-25T09:16:43;24.30;43.00
1329;DHT22;658;48.820;9.354;2023-05-25T09:20:45;24.30;43.10
1329;DHT22;658;48.820;9.354;2023-05-25T09:24:46;24.30;43.00
1329;DHT22;658;48.820;9.354;2023-05-25T09:28:47;24.40;43.00
1329;DHT22;658;48.820;9.354;2023-05-25T09:32:47;24.40;43.00
1329;DHT22;658;48.820;9.354;2023-05-25T09:36:49;24.50;42.90
1329;DHT22;658;48.820;9.354;2023-05-25T09:40:50;24.50;42.90
1329;DHT22;658;48.820;9.354;2023-05-25T09:44:53;24.50;42.80
1329;DHT22;658;48.820;9.354;2023-05-25T09:48:53;24.60;42.90
1329;DHT22;658;48.820;9.354;2023-05-25T09:52:58;24.70;42.90
1329;DHT22;658;48.820;9.354;2023-05-25T09:57:01;24.70;43.10
1329;DHT22;658;48.820;9.354;2023-05-25T10:01:02;24.80;43.00
1329;DHT22;658;48.820;9.354;2023-05-25T10:05:05;24.80;43.20
1329;DHT22;658;48.820;9.354;2023-05-25T10:09:08;24.80;43.00
1329;DHT22;658;48.820;9.354;2023-05-25T10:13:11;24.90;43.00
1329;DHT22;658;48.820;9.354;2023-05-25T10:17:14;24.90;43.10
1329;DHT22;658;48.820;9.354;2023-05-25T10:21:18;25.00;42.90
1329;DHT22;658;48.820;9.354;2023-05-25T10:25:30;25.00;43.10
1329;DHT22;658;48.820;9.354;2023-05-25T10:29:32;25.00;42.80
1329;DHT22;658;48.820;9.354;2023-05-25T10:33:34;25.10;42.70
1329;DHT22;658;48.820;9.354;2023-05-25T10:37:36;25.20;42.60
1329;DHT22;658;48.820;9.354;2023-05-25T10:41:37;25.30;42.50
1329;DHT22;658;48.820;9.354;2023-05-25T10:45:37;25.30;42.50
1329;DHT22;658;48.820;9.354;2023-05-25T10:50:04;25.40;42.50
1329;DHT22;658;48.820;9.354;2023-05-25T10:54:05;25.40;42.40
1329;DHT22;658;48.820;9.354;2023-05-25T10:58:07;25.40;42.20
1329;DHT22;658;48.820;9.354;2023-05-25T11:02:10;25.40;42.20
1329;DHT22;658;48.820;9.354;2023-05-25T11:06:18;25.40;42.10
1329;DHT22;658;48.820;9.354;2023-05-25T11:15:08;25.50;41.90
1329;DHT22;658;48.820;9.354;2023-05-25T11:19:13;25.50;42.00
1329;DHT22;658;48.820;9.354;2023-05-25T11:23:23;25.50;41.90
1329;DHT22;658;48.820;9.354;2023-05-25T11:27:29;25.50;41.90
1329;DHT22;658;48.820;9.354;2023-05-25T11:31:31;25.50;41.90
1329;DHT22;658;48.820;9.354;2023-05-25T11:35:32;25.50;42.50
1329;DHT22;658;48.820;9.354;2023-05-25T11:39:33;25.40;43.20
1329;DHT22;658;48.820;9.354;2023-05-25T11:43:34;25.30;42.70
1329;DHT22;658;48.820;9.354;2023-05-25T11:47:36;25.40;42.50
1329;DHT22;658;48.820;9.354;2023-05-25T11:51:37;25.40;42.80
1329;DHT22;658;48.820;9.354;2023-05-25T11:55:37;25.50;42.70
1329;DHT22;658;48.820;9.354;2023-05-25T11:59:50;25.60;42.60
1329;DHT22;658;48.820;9.354;2023-05-25T12:03:52;25.60;42.50
1329;DHT22;658;48.820;9.354;2023-05-25T12:07:57;25.60;42.60
1329;DHT22;658;48.820;9.354;2023-05-25T12:11:59;25.70;42.70
1329;DHT22;658;48.820;9.354;2023-05-25T12:16:00;25.70;42.60
1329;DHT22;658;48.820;9.354;2023-05-25T12:20:01;25.70;42.60
1329;DHT22;658;48.820;9.354;2023-05-25T12:24:02;25.70;42.60
1329;DHT22;658;48.820;9.354;2023-05-25T12:28:09;25.80;42.60
1329;DHT22;658;48.820;9.354;2023-05-25T12:32:10;25.80;42.80
1329;DHT22;658;48.820;9.354;2023-05-25T12:36:13;25.80;42.80
1329;DHT22;658;48.820;9.354;2023-05-25T12:40:18;25.80;42.90
1329;DHT22;658;48.820;9.354;2023-05-25T12:44:27;25.80;42.80
1329;DHT22;658;48.820;9.354;2023-05-25T12:48:30;25.80;42.70
1329;DHT22;658;48.820;9.354;2023-05-25T12:52:33;25.80;42.70
1329;DHT22;658;48.820;9.354;2023-05-25T12:56:52;25.80;42.80
1329;DHT22;658;48.820;9.354;2023-05-25T13:00:53;25.80;42.50
1329;DHT22;658;48.820;9.354;2023-05-25T13:04:56;25.80;42.90
1329;DHT22;658;48.820;9.354;2023-05-25T13:08:56;25.80;42.80
1329;DHT22;658;48.820;9.354;2023-05-25T13:12:59;25.80;42.90
1329;DHT22;658;48.820;9.354;2023-05-25T13:17:03;25.80;42.80
1329;DHT22;658;48.820;9.354;2023-05-25T13:21:04;25.80;42.80
1329;DHT22;658;48.820;9.354;2023-05-25T13:25:05;25.80;42.90
1329;DHT22;658;48.820;9.354;2023-05-25T13:29:06;25.90;42.80
1329;DHT22;658;48.820;9.354;2023-05-25T13:33:06;25.90;42.80
1329;DHT22;658;48.820;9.354;2023-05-25T13:37:07;26.00;42.80
1329;DHT22;658;48.820;9.354;2023-05-25T13:41:08;26.00;42.80
1329;DHT22;658;48.820;9.354;2023-05-25T13:45:09;26.00;42.60
1329;DHT22;658;48.820;9.354;2023-05-25T13:49:09;26.00;42.50
1329;DHT22;658;48.820;9.354;2023-05-25T13:53:11;26.00;42.70
1329;DHT22;658;48.820;9.354;2023-05-25T13:57:12;25.90;42.80
1329;DHT22;658;48.820;9.354;2023-05-25T14:01:13;25.90;42.70
1329;DHT22;658;48.820;9.354;2023-05-25T14:05:14;25.90;43.30
1329;DHT22;658;48.820;9.354;2023-05-25T14:09:14;25.90;42.70
1329;DHT22;658;48.820;9.354;2023-05-25T14:13:15;25.90;42.80
1329;DHT22;658;48.820;9.354;2023-05-25T14:17:16;25.90;42.70
1329;DHT22;658;48.820;9.354;2023-05-25T14:21:16;26.00;42.70
1329;DHT22;658;48.820;9.354;2023-05-25T14:25:19;25.90;42.90
1329;DHT22;658;48.820;9.354;2023-05-25T14:29:20;26.00;42.70
1329;DHT22;658;48.820;9.354;2023-05-25T14:33:20;26.00;42.90
1329;DHT22;658;48.820;9.354;2023-05-25T14:37:21;26.00;42.90
1329;DHT22;658;48.820;9.354;2023-05-25T14:41:24;26.00;42.70
1329;DHT22;658;48.820;9.354;2023-05-25T14:45:25;26.10;43.50
1329;DHT22;658;48.820;9.354;2023-05-25T14:49:25;26.10;43.10
1329;DHT22;658;48.820;9.354;2023-05-25T14:53:27;26.10;43.80
1329;DHT22;658;48.820;9.354;2023-05-25T14:57:27;26.10;43.40
1329;DHT22;658;48.820;9.354;2023-05-25T15:01:28;26.10;43.20
1329;DHT22;658;48.820;9.354;2023-05-25T15:05:28;26.10;43.10
1329;DHT22;658;48.820;9.354;2023-05-25T15:09:29;26.20;42.90
1329;DHT22;658;48.820;9.354;2023-05-25T15:13:32;26.20;43.10
1329;DHT22;658;48.820;9.354;2023-05-25T15:17:33;26.20;43.00
1329;DHT22;658;48.820;9.354;2023-05-25T15:21:33;26.30;43.00
1329;DHT22;658;48.820;9.354;2023-05-25T15:25:34;26.30;43.10
1329;DHT22;658;48.820;9.354;2023-05-25T15:29:34;26.30;43.20
1329;DHT22;658;48.820;9.354;2023-05-25T15:33:35;26.30;43.10
1329;DHT22;658;48.820;9.354;2023-05-25T15:37:41;26.30;43.00
1329;DHT22;658;48.820;9.354;2023-05-25T15:41:42;26.40;43.00
1329;DHT22;658;48.820;9.354;2023-05-25T15:45:42;26.40;42.70
1329;DHT22;658;48.820;9.354;2023-05-25T15:49:43;26.40;42.60
1329;DHT22;658;48.820;9.354;2023-05-25T15:53:44;26.50;42.50
1329;DHT22;658;48.820;9.354;2023-05-25T15:57:45;26.50;42.30
1329;DHT22;658;48.820;9.354;2023-05-25T16:01:45;26.50;42.90
1329;DHT22;658;48.820;9.354;2023-05-25T16:05:46;26.50;42.70
1329;DHT22;658;48.820;9.354;2023-05-25T16:09:49;26.50;42.50
1329;DHT22;658;48.820;9.354;2023-05-25T16:13:49;26.60;42.60
1329;DHT22;658;48.820;9.354;2023-05-25T16:17:50;26.60;42.50
1329;DHT22;658;48.820;9.354;2023-05-25T16:21:51;26.70;42.50
1329;DHT22;658;48.820;9.354;2023-05-25T16:25:52;26.70;42.30
1329;DHT22;658;48.820;9.354;2023-05-25T16:29:52;26.70;42.30
1329;DHT22;658;48.820;9.354;2023-05-25T16:33:53;26.70;42.30
1329;DHT22;658;48.820;9.354;2023-05-25T16:37:53;26.80;42.20
1329;DHT22;658;48.820;9.354;2023-05-25T16:41:55;26.80;42.10
1329;DHT22;658;48.820;9.354;2023-05-25T16:45:56;26.80;42.10
1329;DHT22;658;48.820;9.354;2023-05-25T16:49:56;26.80;42.00
1329;DHT22;658;48.820;9.354;2023-05-25T16:53:57;26.80;42.00
1329;DHT22;658;48.820;9.354;2023-05-25T16:58:00;26.80;42.00
1329;DHT22;658;48.820;9.354;2023-05-25T17:02:03;26.70;42.20
1329;DHT22;658;48.820;9.354;2023-05-25T17:06:04;26.80;42.50
1329;DHT22;658;48.820;9.354;2023-05-25T17:10:05;26.80;42.30
1329;DHT22;658;48.820;9.354;2023-05-25T17:14:06;26.80;42.30
1329;DHT22;658;48.820;9.354;2023-05-25T17:18:07;26.70;42.50
1329;DHT22;658;48.820;9.354;2023-05-25T17:22:07;26.80;42.50
1329;DHT22;658;48.820;9.354;2023-05-25T17:26:08;26.80;42.50
1329;DHT22;658;48.820;9.354;2023-05-25T17:30:09;26.80;42.80
1329;DHT22;658;48.820;9.354;2023-05-25T17:34:09;26.70;42.40
1329;DHT22;658;48.820;9.354;2023-05-25T17:38:10;26.70;42.40
1329;DHT22;658;48.820;9.354;2023-05-25T17:42:11;26.70;42.70
1329;DHT22;658;48.820;9.354;2023-05-25T17:46:12;26.70;42.50
1329;DHT22;658;48.820;9.354;2023-05-25T17:50:14;26.70;42.50
1329;DHT22;658;48.820;9.354;2023-05-25T17:54:16;26.70;42.50
1329;DHT22;658;48.820;9.354;2023-05-25T17:58:21;26.70;42.30
1329;DHT22;658;48.820;9.354;2023-05-25T18:02:22;26.70;42.50
1329;DHT22;658;48.820;9.354;2023-05-25T18:06:22;26.70;42.20
1329;DHT22;658;48.820;9.354;2023-05-25T18:10:23;26.70;42.00
1329;DHT22;658;48.820;9.354;2023-05-25T18:14:23;26.80;41.80
1329;DHT22;658;48.820;9.354;2023-05-25T18:18:25;26.80;41.60
1329;DHT22;658;48.820;9.354;2023-05-25T18:22:27;26.90;41.50
1329;DHT22;658;48.820;9.354;2023-05-25T18:26:28;26.90;41.60
1329;DHT22;658;48.820;9.354;2023-05-25T18:30:28;26.80;41.80
1329;DHT22;658;48.820;9.354;2023-05-25T18:34:29;26.70;42.00
1329;DHT22;658;48.820;9.354;2023-05-25T18:38:30;26.60;42.10
1329;DHT22;658;48.820;9.354;2023-05-25T18:42:33;26.50;42.10
1329;DHT22;658;48.820;9.354;2023-05-25T18:46:34;26.40;42.20
1329;DHT22;658;48.820;9.354;2023-05-25T18:50:36;26.30;42.50
1329;DHT22;658;48.820;9.354;2023-05-25T18:54:41;26.20;42.60
1329;DHT22;658;48.820;9.354;2023-05-25T18:58:41;26.10;42.60
1329;DHT22;658;48.820;9.354;2023-05-25T19:02:42;26.00;42.60
1329;DHT22;658;48.820;9.354;2023-05-25T19:06:44;26.00;42.70
1329;DHT22;658;48.820;9.354;2023-05-25T19:10:44;25.90;42.70
1329;DHT22;658;48.820;9.354;2023-05-25T19:14:45;25.90;42.80
1329;DHT22;658;48.820;9.354;2023-05-25T19:18:45;25.80;42.80
1329;DHT22;658;48.820;9.354;2023-05-25T19:22:47;25.80;43.10
1329;DHT22;658;48.820;9.354;2023-05-25T19:26:47;25.80;43.10
1329;DHT22;658;48.820;9.354;2023-05-25T19:30:48;25.80;43.10
1329;DHT22;658;48.820;9.354;2023-05-25T19:34:48;25.70;43.10
1329;DHT22;658;48.820;9.354;2023-05-25T19:38:49;25.60;43.20
1329;DHT22;658;48.820;9.354;2023-05-25T19:42:50;25.60;43.40
1329;DHT22;658;48.820;9.354;2023-05-25T19:46:50;25.50;43.30
1329;DHT22;658;48.820;9.354;2023-05-25T19:50:51;25.60;43.80
1329;DHT22;658;48.820;9.354;2023-05-25T19:54:52;25.50;44.20
1329;DHT22;658;48.820;9.354;2023-05-25T19:58:52;25.30;44.10
1329;DHT22;658;48.820;9.354;2023-05-25T20:02:53;25.30;43.90
1329;DHT22;658;48.820;9.354;2023-05-25T20:06:54;25.10;44.20
1329;DHT22;658;48.820;9.354;2023-05-25T20:10:54;25.00;44.40
1329;DHT22;658;48.820;9.354;2023-05-25T20:14:55;24.80;44.40
1329;DHT22;658;48.820;9.354;2023-05-25T20:18:58;24.70;44.80
1329;DHT22;658;48.820;9.354;2023-05-25T20:22:58;24.50;44.30
1329;DHT22;658;48.820;9.354;2023-05-25T20:26:59;24.50;44.60
1329;DHT22;658;48.820;9.354;2023-05-25T20:31:00;24.30;44.30
1329;DHT22;658;48.820;9.354;2023-05-25T20:35:03;24.10;44.40
1329;DHT22;658;48.820;9.354;2023-05-25T20:39:04;24.00;44.80
1329;DHT22;658;48.820;9.354;2023-05-25T20:43:05;23.90;45.30
1329;DHT22;658;48.820;9.354;2023-05-25T20:47:08;23.80;45.20
1329;DHT22;658;48.820;9.354;2023-05-25T20:51:09;23.80;45.90
1329;DHT22;658;48.820;9.354;2023-05-25T20:55:10;23.80;45.90
1329;DHT22;658;48.820;9.354;2023-05-25T20:59:11;23.80;45.90
1329;DHT22;658;48.820;9.354;2023-05-25T21:03:11;23.80;45.80
1329;DHT22;658;48.820;9.354;2023-05-25T21:07:12;23.80;45.70
1329;DHT22;658;48.820;9.354;2023-05-25T21:11:13;23.90;45.80
1329;DHT22;658;48.820;9.354;2023-05-25T21:15:13;23.90;45.70
1329;DHT22;658;48.820;9.354;2023-05-25T21:19:14;23.90;45.70
1329;DHT22;658;48.820;9.354;2023-05-25T21:23:14;23.90;45.70
1329;DHT22;658;48.820;9.354;2023-05-25T21:27:15;23.90;45.70
1329;DHT22;658;48.820;9.354;2023-05-25T21:31:18;23.90;45.70
1329;DHT22;658;48.820;9.354;2023-05-25T21:35:23;23.90;46.00
1329;DHT22;658;48.820;9.354;2023-05-25T21:39:26;23.90;45.90
1329;DHT22;658;48.820;9.354;2023-05-25T21:43:27;23.90;45.80
1329;DHT22;658;48.820;9.354;2023-05-25T21:47:27;23.80;45.80
1329;DHT22;658;48.820;9.354;2023-05-25T21:51:28;23.80;45.90
1329;DHT22;658;48.820;9.354;2023-05-25T21:55:29;23.80;46.20
1329;DHT22;658;48.820;9.354;2023-05-25T21:59:30;23.80;46.20
1329;DHT22;658;48.820;9.354;2023-05-25T22:03:33;23.80;46.10
1329;DHT22;658;48.820;9.354;2023-05-25T22:07:33;23.80;46.20
1329;DHT22;658;48.820;9.354;2023-05-25T22:11:36;23.80;46.20
1329;DHT22;658;48.820;9.354;2023-05-25T22:15:37;23.90;46.30
1329;DHT22;658;48.820;9.354;2023-05-25T22:19:38;23.90;46.30
1329;DHT22;658;48.820;9.354;2023-05-25T22:23:39;23.90;46.30
1329;DHT22;658;48.820;9.354;2023-05-25T22:27:39;23.90;46.30
1329;DHT22;658;48.820;9.354;2023-05-25T22:31:40;23.80;46.30
1329;DHT22;658;48.820;9.354;2023-05-25T22:35:43;23.80;46.20
1329;DHT22;658;48.820;9.354;2023-05-25T22:39:44;23.80;46.30
1329;DHT22;658;48.820;9.354;2023-05-25T22:43:44;23.80;46.30
1329;DHT22;658;48.820;9.354;2023-05-25T22:47:45;23.80;46.30
1329;DHT22;658;48.820;9.354;2023-05-25T22:51:45;23.80;46.50
1329;DHT22;658;48.820;9.354;2023-05-25T22:55:48;23.80;46.70
1329;DHT22;658;48.820;9.354;2023-05-25T22:59:49;23.80;46.70
1329;DHT22;658;48.820;9.354;2023-05-25T23:03:51;23.80;46.70
1329;DHT22;658;48.820;9.354;2023-05-25T23:07:52;23.80;46.60
1329;DHT22;658;48.820;9.354;2023-05-25T23:11:55;23.80;46.50
1329;DHT22;658;48.820;9.354;2023-05-25T23:15:55;23.80;46.50
1329;DHT22;658;48.820;9.354;2023-05-25T23:19:56;23.80;46.50
1329;DHT22;658;48.820;9.354;2023-05-25T23:23:56;23.80;46.50
1329;DHT22;658;48.820;9.354;2023-05-25T23:27:57;23.80;46.40
1329;DHT22;658;48.820;9.354;2023-05-25T23:31:58;23.80;46.40
1329;DHT22;658;48.820;9.354;2023-05-25T23:35:59;23.80;46.40
1329;DHT22;658;48.820;9.354;2023-05-25T23:39:59;23.70;46.30
1329;DHT22;658;48.820;9.354;2023-05-25T23:44:00;23.70;46.30
1329;DHT22;658;48.820;9.354;2023-05-25T23:48:01;23.70;46.30
1329;DHT22;658;48.820;9.354;2023-05-25T23:52:01;23.70;46.30
1329;DHT22;658;48.820;9.354;2023-05-25T23:56:02;23.70;46.30
